sensor_id;sensor_type;location;lat;lon;timestamp;P1;durP1;ratioP1;P2;durP2;ratioP2
30384;SDS011;17181;51.002;4.096;2023-07-20T04:50:42;7.60;;;3.80;;
30384;SDS011;17181;51.002;4.096;2023-07-20T05:55:51;9.87;;;4.60;;
30384;SDS011;17181;51.002;4.096;2023-07-20T05:58:18;9.87;;;5.30;;
30384;SDS011;17181;51.002;4.096;2023-07-20T06:00:44;8.20;;;5.63;;
30384;SDS011;17181;51.002;4.096;2023-07-20T06:03:12;8.27;;;4.70;;
30384;SDS011;17181;51.002;4.096;2023-07-20T06:05:38;8.80;;;4.97;;
30384;SDS011;17181;51.002;4.096;2023-07-20T06:08:50;11.53;;;4.60;;
30384;SDS011;17181;51.002;4.096;2023-07-20T06:11:17;6.17;;;4.70;;
30384;SDS011;17181;51.002;4.096;2023-07-20T06:13:44;8.23;;;5.17;;
30384;SDS011;17181;51.002;4.096;2023-07-20T06:16:25;14.20;;;5.10;;
30384;SDS011;17181;51.002;4.096;2023-07-20T06:18:53;13.70;;;5.13;;
30384;SDS011;17181;51.002;4.096;2023-07-20T06:21:19;7.67;;;5.53;;
30384;SDS011;17181;51.002;4.096;2023-07-20T06:23:46;10.93;;;5.90;;
30384;SDS011;17181;51.002;4.096;2023-07-20T06:26:21;13.13;;;4.70;;
30384;SDS011;17181;51.002;4.096;2023-07-20T06:28:48;7.10;;;3.80;;
30384;SDS011;17181;51.002;4.096;2023-07-20T06:31:17;9.87;;;4.00;;
30384;SDS011;17181;51.002;4.096;2023-07-20T06:33:44;4.10;;;3.50;;
30384;SDS011;17181;51.002;4.096;2023-07-20T06:36:11;5.17;;;3.30;;
30384;SDS011;17181;51.002;4.096;2023-07-20T06:38:43;4.47;;;3.33;;
30384;SDS011;17181;51.002;4.096;2023-07-20T06:41:30;3.13;;;2.83;;
30384;SDS011;17181;51.002;4.096;2023-07-20T06:43:57;10.73;;;3.97;;
30384;SDS011;17181;51.002;4.096;2023-07-20T06:46:34;8.00;;;3.93;;
30384;SDS011;17181;51.002;4.096;2023-07-20T06:49:00;5.63;;;3.17;;
30384;SDS011;17181;51.002;4.096;2023-07-20T06:51:26;2.47;;;2.20;;
30384;SDS011;17181;51.002;4.096;2023-07-20T06:53:52;5.23;;;3.23;;
30384;SDS011;17181;51.002;4.096;2023-07-20T06:56:18;7.00;;;3.43;;
30384;SDS011;17181;51.002;4.096;2023-07-20T06:58:45;3.03;;;2.30;;
30384;SDS011;17181;51.002;4.096;2023-07-20T07:01:11;3.03;;;2.20;;
30384;SDS011;17181;51.002;4.096;2023-07-20T07:03:40;3.13;;;2.67;;
30384;SDS011;17181;51.002;4.096;2023-07-20T07:06:06;7.00;;;3.10;;
30384;SDS011;17181;51.002;4.096;2023-07-20T07:08:32;4.23;;;3.17;;
30384;SDS011;17181;51.002;4.096;2023-07-20T07:11:00;4.97;;;2.73;;
30384;SDS011;17181;51.002;4.096;2023-07-20T07:13:27;4.07;;;2.70;;
30384;SDS011;17181;51.002;4.096;2023-07-20T07:15:53;3.40;;;2.33;;
30384;SDS011;17181;51.002;4.096;2023-07-20T07:18:20;4.13;;;2.43;;
30384;SDS011;17181;51.002;4.096;2023-07-20T07:20:55;7.07;;;2.33;;
30384;SDS011;17181;51.002;4.096;2023-07-20T07:23:22;4.03;;;2.73;;
30384;SDS011;17181;51.002;4.096;2023-07-20T07:25:52;4.63;;;2.60;;
30384;SDS011;17181;51.002;4.096;2023-07-20T07:28:21;3.20;;;2.57;;
30384;SDS011;17181;51.002;4.096;2023-07-20T07:30:47;5.73;;;2.47;;
30384;SDS011;17181;51.002;4.096;2023-07-20T07:33:14;2.97;;;2.40;;
30384;SDS011;17181;51.002;4.096;2023-07-20T07:35:40;8.80;;;2.90;;
30384;SDS011;17181;51.002;4.096;2023-07-20T07:38:16;4.37;;;2.67;;
30384;SDS011;17181;51.002;4.096;2023-07-20T07:41:24;6.17;;;3.13;;
30384;SDS011;17181;51.002;4.096;2023-07-20T07:44:00;8.50;;;2.93;;
30384;SDS011;17181;51.002;4.096;2023-07-20T07:46:32;2.30;;;1.70;;
30384;SDS011;17181;51.002;4.096;2023-07-20T07:49:00;5.87;;;2.40;;
30384;SDS011;17181;51.002;4.096;2023-07-20T07:51:26;4.70;;;2.43;;
30384;SDS011;17181;51.002;4.096;2023-07-20T07:53:55;5.57;;;2.37;;
30384;SDS011;17181;51.002;4.096;2023-07-20T07:56:21;2.83;;;2.43;;
30384;SDS011;17181;51.002;4.096;2023-07-20T07:58:50;2.97;;;2.33;;
30384;SDS011;17181;51.002;4.096;2023-07-20T08:01:17;2.33;;;2.13;;
30384;SDS011;17181;51.002;4.096;2023-07-20T08:03:44;3.07;;;2.03;;
30384;SDS011;17181;51.002;4.096;2023-07-20T08:06:15;3.13;;;2.57;;
30384;SDS011;17181;51.002;4.096;2023-07-20T08:08:41;4.40;;;2.40;;
30384;SDS011;17181;51.002;4.096;2023-07-20T08:11:08;3.43;;;2.13;;
30384;SDS011;17181;51.002;4.096;2023-07-20T08:13:34;1.90;;;1.80;;
30384;SDS011;17181;51.002;4.096;2023-07-20T08:16:00;14.13;;;2.10;;
30384;SDS011;17181;51.002;4.096;2023-07-20T08:18:29;2.93;;;1.93;;
30384;SDS011;17181;51.002;4.096;2023-07-20T08:20:56;2.20;;;1.90;;
30384;SDS011;17181;51.002;4.096;2023-07-20T08:23:23;3.07;;;2.00;;
30384;SDS011;17181;51.002;4.096;2023-07-20T08:25:49;2.33;;;1.47;;
30384;SDS011;17181;51.002;4.096;2023-07-20T08:28:16;1.90;;;1.80;;
30384;SDS011;17181;51.002;4.096;2023-07-20T08:30:42;1.37;;;1.00;;
30384;SDS011;17181;51.002;4.096;2023-07-20T08:33:12;4.53;;;1.03;;
30384;SDS011;17181;51.002;4.096;2023-07-20T08:35:39;1.30;;;1.30;;
30384;SDS011;17181;51.002;4.096;2023-07-20T08:38:06;1.27;;;1.20;;
30384;SDS011;17181;51.002;4.096;2023-07-20T08:40:33;1.50;;;1.40;;
30384;SDS011;17181;51.002;4.096;2023-07-20T08:43:04;1.63;;;1.50;;
30384;SDS011;17181;51.002;4.096;2023-07-20T08:45:32;2.27;;;2.07;;
30384;SDS011;17181;51.002;4.096;2023-07-20T08:48:04;1.27;;;1.20;;
30384;SDS011;17181;51.002;4.096;2023-07-20T08:50:31;1.90;;;1.80;;
30384;SDS011;17181;51.002;4.096;2023-07-20T08:52:58;1.63;;;1.53;;
30384;SDS011;17181;51.002;4.096;2023-07-20T08:55:25;1.73;;;1.50;;
30384;SDS011;17181;51.002;4.096;2023-07-20T08:57:56;4.27;;;1.70;;
30384;SDS011;17181;51.002;4.096;2023-07-20T09:00:24;1.97;;;1.87;;
30384;SDS011;17181;51.002;4.096;2023-07-20T09:02:55;14.37;;;2.60;;
30384;SDS011;17181;51.002;4.096;2023-07-20T09:05:23;1.73;;;1.63;;
30384;SDS011;17181;51.002;4.096;2023-07-20T09:07:52;1.47;;;1.37;;
30384;SDS011;17181;51.002;4.096;2023-07-20T09:10:21;1.80;;;1.60;;
30384;SDS011;17181;51.002;4.096;2023-07-20T09:12:47;2.30;;;1.33;;
30384;SDS011;17181;51.002;4.096;2023-07-20T09:15:14;2.90;;;1.33;;
30384;SDS011;17181;51.002;4.096;2023-07-20T09:17:45;2.90;;;2.20;;
30384;SDS011;17181;51.002;4.096;2023-07-20T09:20:13;6.10;;;2.53;;
30384;SDS011;17181;51.002;4.096;2023-07-20T09:22:42;2.27;;;2.07;;
30384;SDS011;17181;51.002;4.096;2023-07-20T09:25:12;2.20;;;1.90;;
30384;SDS011;17181;51.002;4.096;2023-07-20T09:27:44;1.37;;;1.37;;
30384;SDS011;17181;51.002;4.096;2023-07-20T09:30:11;2.10;;;2.00;;
30384;SDS011;17181;51.002;4.096;2023-07-20T09:32:40;2.20;;;2.07;;
30384;SDS011;17181;51.002;4.096;2023-07-20T09:35:14;3.00;;;1.57;;
30384;SDS011;17181;51.002;4.096;2023-07-20T09:37:53;2.80;;;2.70;;
30384;SDS011;17181;51.002;4.096;2023-07-20T09:40:20;3.23;;;2.93;;
30384;SDS011;17181;51.002;4.096;2023-07-20T09:42:46;2.70;;;2.47;;
30384;SDS011;17181;51.002;4.096;2023-07-20T09:45:13;3.23;;;3.03;;
30384;SDS011;17181;51.002;4.096;2023-07-20T09:47:39;2.63;;;2.33;;
30384;SDS011;17181;51.002;4.096;2023-07-20T09:50:06;2.97;;;2.77;;
30384;SDS011;17181;51.002;4.096;2023-07-20T09:52:39;3.37;;;2.80;;
30384;SDS011;17181;51.002;4.096;2023-07-20T09:58:08;3.73;;;3.43;;
30384;SDS011;17181;51.002;4.096;2023-07-20T10:00:35;3.23;;;2.80;;
30384;SDS011;17181;51.002;4.096;2023-07-20T10:03:03;2.87;;;2.60;;
30384;SDS011;17181;51.002;4.096;2023-07-20T10:05:32;2.87;;;2.30;;
30384;SDS011;17181;51.002;4.096;2023-07-20T10:08:02;6.20;;;2.57;;
30384;SDS011;17181;51.002;4.096;2023-07-20T10:10:31;3.23;;;2.97;;
30384;SDS011;17181;51.002;4.096;2023-07-20T10:12:59;2.13;;;2.03;;
30384;SDS011;17181;51.002;4.096;2023-07-20T10:15:33;3.33;;;2.60;;
30384;SDS011;17181;51.002;4.096;2023-07-20T10:18:03;2.60;;;2.40;;
30384;SDS011;17181;51.002;4.096;2023-07-20T10:20:40;2.40;;;2.30;;
30384;SDS011;17181;51.002;4.096;2023-07-20T10:23:07;2.27;;;2.17;;
30384;SDS011;17181;51.002;4.096;2023-07-20T10:25:34;2.77;;;2.57;;
30384;SDS011;17181;51.002;4.096;2023-07-20T10:28:04;2.80;;;2.60;;
30384;SDS011;17181;51.002;4.096;2023-07-20T10:30:36;7.63;;;0.97;;
30384;SDS011;17181;51.002;4.096;2023-07-20T10:33:03;2.77;;;2.57;;
30384;SDS011;17181;51.002;4.096;2023-07-20T10:35:30;3.10;;;2.90;;
30384;SDS011;17181;51.002;4.096;2023-07-20T10:38:00;2.57;;;2.10;;
30384;SDS011;17181;51.002;4.096;2023-07-20T10:40:30;2.73;;;2.23;;
30384;SDS011;17181;51.002;4.096;2023-07-20T10:43:02;1.70;;;1.60;;
30384;SDS011;17181;51.002;4.096;2023-07-20T10:45:50;1.50;;;1.40;;
30384;SDS011;17181;51.002;4.096;2023-07-20T10:48:19;3.57;;;2.07;;
30384;SDS011;17181;51.002;4.096;2023-07-20T10:50:48;2.20;;;2.10;;
30384;SDS011;17181;51.002;4.096;2023-07-20T10:53:42;1.37;;;1.30;;
30384;SDS011;17181;51.002;4.096;2023-07-20T10:56:08;1.90;;;1.80;;
30384;SDS011;17181;51.002;4.096;2023-07-20T10:58:40;3.57;;;2.20;;
30384;SDS011;17181;51.002;4.096;2023-07-20T11:01:07;1.83;;;1.73;;
30384;SDS011;17181;51.002;4.096;2023-07-20T11:03:34;1.90;;;1.80;;
30384;SDS011;17181;51.002;4.096;2023-07-20T11:08:54;1.67;;;1.57;;
30384;SDS011;17181;51.002;4.096;2023-07-20T11:11:22;1.23;;;1.13;;
30384;SDS011;17181;51.002;4.096;2023-07-20T11:14:09;1.40;;;1.37;;
30384;SDS011;17181;51.002;4.096;2023-07-20T11:16:46;1.60;;;1.50;;
30384;SDS011;17181;51.002;4.096;2023-07-20T11:19:23;3.27;;;1.43;;
30384;SDS011;17181;51.002;4.096;2023-07-20T11:21:51;0.90;;;0.90;;
30384;SDS011;17181;51.002;4.096;2023-07-20T11:24:18;1.20;;;1.10;;
30384;SDS011;17181;51.002;4.096;2023-07-20T11:29:18;4.07;;;1.33;;
30384;SDS011;17181;51.002;4.096;2023-07-20T11:31:46;2.10;;;1.17;;
30384;SDS011;17181;51.002;4.096;2023-07-20T11:34:13;2.90;;;1.40;;
30384;SDS011;17181;51.002;4.096;2023-07-20T11:36:41;1.90;;;1.63;;
30384;SDS011;17181;51.002;4.096;2023-07-20T11:39:10;6.00;;;1.30;;
30384;SDS011;17181;51.002;4.096;2023-07-20T11:41:37;1.63;;;1.53;;
30384;SDS011;17181;51.002;4.096;2023-07-20T11:44:06;2.00;;;1.50;;
30384;SDS011;17181;51.002;4.096;2023-07-20T11:46:33;1.47;;;1.33;;
30384;SDS011;17181;51.002;4.096;2023-07-20T11:48:59;2.30;;;1.37;;
30384;SDS011;17181;51.002;4.096;2023-07-20T11:51:26;1.13;;;0.80;;
30384;SDS011;17181;51.002;4.096;2023-07-20T11:53:53;1.00;;;1.00;;
30384;SDS011;17181;51.002;4.096;2023-07-20T11:56:20;1.60;;;1.13;;
30384;SDS011;17181;51.002;4.096;2023-07-20T11:58:48;2.10;;;1.20;;
30384;SDS011;17181;51.002;4.096;2023-07-20T12:01:14;1.20;;;1.10;;
30384;SDS011;17181;51.002;4.096;2023-07-20T12:03:41;1.10;;;1.10;;
30384;SDS011;17181;51.002;4.096;2023-07-20T12:06:08;1.87;;;1.57;;
30384;SDS011;17181;51.002;4.096;2023-07-20T12:08:34;2.90;;;1.00;;
30384;SDS011;17181;51.002;4.096;2023-07-20T12:11:03;1.10;;;1.10;;
30384;SDS011;17181;51.002;4.096;2023-07-20T12:13:41;1.17;;;1.10;;
30384;SDS011;17181;51.002;4.096;2023-07-20T12:16:12;1.40;;;1.30;;
30384;SDS011;17181;51.002;4.096;2023-07-20T12:18:39;1.27;;;1.27;;
30384;SDS011;17181;51.002;4.096;2023-07-20T12:21:06;1.30;;;1.30;;
30384;SDS011;17181;51.002;4.096;2023-07-20T12:23:37;1.10;;;1.00;;
30384;SDS011;17181;51.002;4.096;2023-07-20T12:26:09;2.23;;;1.03;;
30384;SDS011;17181;51.002;4.096;2023-07-20T12:28:38;1.87;;;1.20;;
30384;SDS011;17181;51.002;4.096;2023-07-20T12:31:08;1.63;;;1.27;;
30384;SDS011;17181;51.002;4.096;2023-07-20T12:33:36;1.40;;;1.40;;
30384;SDS011;17181;51.002;4.096;2023-07-20T12:36:02;3.80;;;1.33;;
30384;SDS011;17181;51.002;4.096;2023-07-20T12:38:28;1.23;;;1.17;;
30384;SDS011;17181;51.002;4.096;2023-07-20T12:40:55;3.80;;;1.07;;
30384;SDS011;17181;51.002;4.096;2023-07-20T12:43:22;1.77;;;1.53;;
30384;SDS011;17181;51.002;4.096;2023-07-20T12:45:48;1.23;;;1.07;;
30384;SDS011;17181;51.002;4.096;2023-07-20T12:48:14;0.83;;;0.83;;
30384;SDS011;17181;51.002;4.096;2023-07-20T12:50:40;1.00;;;1.00;;
30384;SDS011;17181;51.002;4.096;2023-07-20T12:53:05;7.30;;;1.40;;
30384;SDS011;17181;51.002;4.096;2023-07-20T12:55:31;3.10;;;1.10;;
30384;SDS011;17181;51.002;4.096;2023-07-20T12:57:57;1.10;;;1.10;;
30384;SDS011;17181;51.002;4.096;2023-07-20T13:00:23;1.90;;;1.23;;
30384;SDS011;17181;51.002;4.096;2023-07-20T13:02:51;7.10;;;1.53;;
30384;SDS011;17181;51.002;4.096;2023-07-20T13:05:17;1.57;;;1.47;;
30384;SDS011;17181;51.002;4.096;2023-07-20T13:07:43;4.70;;;1.43;;
30384;SDS011;17181;51.002;4.096;2023-07-20T13:10:09;1.97;;;1.50;;
30384;SDS011;17181;51.002;4.096;2023-07-20T13:12:36;2.20;;;1.70;;
30384;SDS011;17181;51.002;4.096;2023-07-20T13:15:04;1.80;;;1.47;;
30384;SDS011;17181;51.002;4.096;2023-07-20T13:17:38;1.70;;;1.40;;
30384;SDS011;17181;51.002;4.096;2023-07-20T13:20:08;4.67;;;1.50;;
30384;SDS011;17181;51.002;4.096;2023-07-20T13:22:36;1.60;;;1.50;;
30384;SDS011;17181;51.002;4.096;2023-07-20T13:25:02;3.03;;;1.40;;
30384;SDS011;17181;51.002;4.096;2023-07-20T13:27:29;1.87;;;1.77;;
30384;SDS011;17181;51.002;4.096;2023-07-20T13:29:56;1.90;;;1.80;;
30384;SDS011;17181;51.002;4.096;2023-07-20T13:32:22;2.90;;;2.23;;
30384;SDS011;17181;51.002;4.096;2023-07-20T13:34:48;4.83;;;1.50;;
30384;SDS011;17181;51.002;4.096;2023-07-20T13:37:14;1.67;;;1.57;;
30384;SDS011;17181;51.002;4.096;2023-07-20T13:39:41;2.60;;;1.83;;
30384;SDS011;17181;51.002;4.096;2023-07-20T13:42:07;3.37;;;1.60;;
30384;SDS011;17181;51.002;4.096;2023-07-20T13:44:36;3.67;;;1.40;;
30384;SDS011;17181;51.002;4.096;2023-07-20T13:47:03;1.67;;;1.57;;
30384;SDS011;17181;51.002;4.096;2023-07-20T13:49:32;1.77;;;1.53;;
30384;SDS011;17181;51.002;4.096;2023-07-20T13:51:58;2.93;;;1.60;;
30384;SDS011;17181;51.002;4.096;2023-07-20T13:54:24;1.50;;;1.40;;
30384;SDS011;17181;51.002;4.096;2023-07-20T13:56:50;6.33;;;1.30;;
30384;SDS011;17181;51.002;4.096;2023-07-20T13:59:17;1.20;;;1.10;;
30384;SDS011;17181;51.002;4.096;2023-07-20T14:01:43;0.90;;;0.85;;
30384;SDS011;17181;51.002;4.096;2023-07-20T14:04:09;0.90;;;0.90;;
30384;SDS011;17181;51.002;4.096;2023-07-20T14:06:35;0.77;;;0.77;;
30384;SDS011;17181;51.002;4.096;2023-07-20T14:09:01;0.90;;;0.90;;
30384;SDS011;17181;51.002;4.096;2023-07-20T14:11:28;0.95;;;0.82;;
30384;SDS011;17181;51.002;4.096;2023-07-20T14:13:54;0.73;;;0.73;;
30384;SDS011;17181;51.002;4.096;2023-07-20T14:16:21;1.90;;;0.80;;
30384;SDS011;17181;51.002;4.096;2023-07-20T14:18:47;0.65;;;0.60;;
30384;SDS011;17181;51.002;4.096;2023-07-20T14:21:14;0.60;;;0.60;;
30384;SDS011;17181;51.002;4.096;2023-07-20T14:23:41;0.80;;;0.80;;
30384;SDS011;17181;51.002;4.096;2023-07-20T14:26:07;0.75;;;0.60;;
30384;SDS011;17181;51.002;4.096;2023-07-20T14:28:34;0.65;;;0.65;;
30384;SDS011;17181;51.002;4.096;2023-07-20T14:31:00;0.70;;;0.40;;
30384;SDS011;17181;51.002;4.096;2023-07-20T14:33:26;2.10;;;0.52;;
30384;SDS011;17181;51.002;4.096;2023-07-20T14:35:52;13.77;;;1.92;;
30384;SDS011;17181;51.002;4.096;2023-07-20T14:38:18;0.60;;;0.60;;
30384;SDS011;17181;51.002;4.096;2023-07-20T14:40:43;1.20;;;0.77;;
30384;SDS011;17181;51.002;4.096;2023-07-20T14:43:11;2.08;;;0.88;;
30384;SDS011;17181;51.002;4.096;2023-07-20T14:45:37;2.60;;;1.00;;
30384;SDS011;17181;51.002;4.096;2023-07-20T14:48:03;3.50;;;0.77;;
30384;SDS011;17181;51.002;4.096;2023-07-20T14:50:29;2.67;;;0.90;;
30384;SDS011;17181;51.002;4.096;2023-07-20T14:52:55;0.70;;;0.57;;
30384;SDS011;17181;51.002;4.096;2023-07-20T14:55:20;0.90;;;0.90;;
30384;SDS011;17181;51.002;4.096;2023-07-20T14:57:47;0.77;;;0.77;;
30384;SDS011;17181;51.002;4.096;2023-07-20T15:00:13;0.40;;;0.40;;
30384;SDS011;17181;51.002;4.096;2023-07-20T15:02:40;1.43;;;0.90;;
30384;SDS011;17181;51.002;4.096;2023-07-20T15:05:09;0.40;;;0.40;;
30384;SDS011;17181;51.002;4.096;2023-07-20T15:07:36;1.60;;;0.83;;
30384;SDS011;17181;51.002;4.096;2023-07-20T15:10:05;3.40;;;0.80;;
30384;SDS011;17181;51.002;4.096;2023-07-20T15:12:31;0.67;;;0.50;;
30384;SDS011;17181;51.002;4.096;2023-07-20T15:15:19;0.20;;;0.20;;
30384;SDS011;17181;51.002;4.096;2023-07-20T15:17:46;3.20;;;1.47;;
30384;SDS011;17181;51.002;4.096;2023-07-20T15:20:15;5.33;;;2.27;;
30384;SDS011;17181;51.002;4.096;2023-07-20T15:22:41;4.50;;;1.40;;
30384;SDS011;17181;51.002;4.096;2023-07-20T15:25:10;3.53;;;2.40;;
30384;SDS011;17181;51.002;4.096;2023-07-20T15:27:39;3.20;;;1.83;;
30384;SDS011;17181;51.002;4.096;2023-07-20T15:30:08;5.70;;;2.40;;
30384;SDS011;17181;51.002;4.096;2023-07-20T15:32:34;2.33;;;2.13;;
30384;SDS011;17181;51.002;4.096;2023-07-20T15:35:00;2.10;;;1.90;;
30384;SDS011;17181;51.002;4.096;2023-07-20T15:37:28;1.73;;;1.63;;
30384;SDS011;17181;51.002;4.096;2023-07-20T15:39:53;2.80;;;2.53;;
30384;SDS011;17181;51.002;4.096;2023-07-20T15:42:21;2.40;;;2.20;;
30384;SDS011;17181;51.002;4.096;2023-07-20T15:44:51;4.30;;;2.33;;
30384;SDS011;17181;51.002;4.096;2023-07-20T15:47:18;3.33;;;2.60;;
30384;SDS011;17181;51.002;4.096;2023-07-20T15:49:43;5.37;;;3.27;;
30384;SDS011;17181;51.002;4.096;2023-07-20T15:52:10;2.53;;;2.33;;
30384;SDS011;17181;51.002;4.096;2023-07-20T15:54:37;5.53;;;3.00;;
30384;SDS011;17181;51.002;4.096;2023-07-20T15:57:04;4.77;;;3.77;;
30384;SDS011;17181;51.002;4.096;2023-07-20T15:59:30;3.47;;;3.17;;
30384;SDS011;17181;51.002;4.096;2023-07-20T16:01:56;4.13;;;3.10;;
30384;SDS011;17181;51.002;4.096;2023-07-20T16:04:22;5.70;;;3.70;;
30384;SDS011;17181;51.002;4.096;2023-07-20T16:06:48;3.50;;;3.13;;
30384;SDS011;17181;51.002;4.096;2023-07-20T16:09:14;7.27;;;4.20;;
30384;SDS011;17181;51.002;4.096;2023-07-20T16:11:39;4.43;;;3.80;;
30384;SDS011;17181;51.002;4.096;2023-07-20T16:14:06;4.67;;;3.67;;
30384;SDS011;17181;51.002;4.096;2023-07-20T16:16:33;4.80;;;3.53;;
30384;SDS011;17181;51.002;4.096;2023-07-20T16:19:00;6.37;;;3.13;;
30384;SDS011;17181;51.002;4.096;2023-07-20T16:21:26;10.40;;;3.60;;
30384;SDS011;17181;51.002;4.096;2023-07-20T16:23:51;4.47;;;3.43;;
30384;SDS011;17181;51.002;4.096;2023-07-20T16:26:17;3.33;;;3.03;;
30384;SDS011;17181;51.002;4.096;2023-07-20T16:28:43;4.77;;;3.53;;
30384;SDS011;17181;51.002;4.096;2023-07-20T16:31:14;7.73;;;3.23;;
30384;SDS011;17181;51.002;4.096;2023-07-20T16:33:41;5.47;;;3.63;;
30384;SDS011;17181;51.002;4.096;2023-07-20T16:36:12;5.00;;;3.87;;
30384;SDS011;17181;51.002;4.096;2023-07-20T16:38:41;3.97;;;3.20;;
30384;SDS011;17181;51.002;4.096;2023-07-20T16:41:08;7.77;;;3.87;;
30384;SDS011;17181;51.002;4.096;2023-07-20T16:43:35;3.50;;;3.17;;
30384;SDS011;17181;51.002;4.096;2023-07-20T16:46:02;4.17;;;3.37;;
30384;SDS011;17181;51.002;4.096;2023-07-20T16:48:29;4.93;;;2.93;;
30384;SDS011;17181;51.002;4.096;2023-07-20T16:50:56;11.40;;;3.77;;
30384;SDS011;17181;51.002;4.096;2023-07-20T16:53:22;8.77;;;4.00;;
30384;SDS011;17181;51.002;4.096;2023-07-20T16:55:49;6.80;;;2.97;;
30384;SDS011;17181;51.002;4.096;2023-07-20T16:58:20;3.77;;;3.30;;
30384;SDS011;17181;51.002;4.096;2023-07-20T17:00:47;8.67;;;3.53;;
30384;SDS011;17181;51.002;4.096;2023-07-20T17:03:14;3.83;;;3.13;;
30384;SDS011;17181;51.002;4.096;2023-07-20T17:05:44;3.27;;;2.93;;
30384;SDS011;17181;51.002;4.096;2023-07-20T17:08:11;3.23;;;2.90;;
30384;SDS011;17181;51.002;4.096;2023-07-20T17:10:43;4.37;;;2.93;;
30384;SDS011;17181;51.002;4.096;2023-07-20T17:13:13;6.50;;;3.70;;
30384;SDS011;17181;51.002;4.096;2023-07-20T17:15:57;5.23;;;3.13;;
30384;SDS011;17181;51.002;4.096;2023-07-20T17:18:22;3.87;;;3.33;;
30384;SDS011;17181;51.002;4.096;2023-07-20T17:20:49;3.57;;;2.50;;
30384;SDS011;17181;51.002;4.096;2023-07-20T17:23:15;3.27;;;2.97;;
30384;SDS011;17181;51.002;4.096;2023-07-20T17:25:45;3.77;;;2.97;;
30384;SDS011;17181;51.002;4.096;2023-07-20T17:28:12;4.20;;;3.23;;
30384;SDS011;17181;51.002;4.096;2023-07-20T17:30:40;2.27;;;2.17;;
30384;SDS011;17181;51.002;4.096;2023-07-20T17:33:06;2.80;;;1.93;;
30384;SDS011;17181;51.002;4.096;2023-07-20T17:35:34;2.83;;;2.40;;
30384;SDS011;17181;51.002;4.096;2023-07-20T17:38:01;2.40;;;1.90;;
30384;SDS011;17181;51.002;4.096;2023-07-20T17:40:28;2.60;;;2.40;;
30384;SDS011;17181;51.002;4.096;2023-07-20T17:42:54;5.90;;;1.73;;
30384;SDS011;17181;51.002;4.096;2023-07-20T17:45:20;1.70;;;1.60;;
30384;SDS011;17181;51.002;4.096;2023-07-20T17:47:47;1.87;;;1.77;;
30384;SDS011;17181;51.002;4.096;2023-07-20T17:50:14;3.80;;;2.03;;
30384;SDS011;17181;51.002;4.096;2023-07-20T17:52:41;2.33;;;2.13;;
30384;SDS011;17181;51.002;4.096;2023-07-20T17:55:07;4.97;;;2.47;;
30384;SDS011;17181;51.002;4.096;2023-07-20T17:57:34;4.77;;;2.03;;
30384;SDS011;17181;51.002;4.096;2023-07-20T18:00:00;2.37;;;2.20;;
30384;SDS011;17181;51.002;4.096;2023-07-20T18:02:26;2.40;;;2.20;;
30384;SDS011;17181;51.002;4.096;2023-07-20T18:04:53;1.93;;;1.67;;
30384;SDS011;17181;51.002;4.096;2023-07-20T18:07:19;2.90;;;2.00;;
30384;SDS011;17181;51.002;4.096;2023-07-20T18:09:45;2.10;;;1.90;;
30384;SDS011;17181;51.002;4.096;2023-07-20T18:12:11;1.77;;;1.67;;
30384;SDS011;17181;51.002;4.096;2023-07-20T18:14:37;1.20;;;1.20;;
30384;SDS011;17181;51.002;4.096;2023-07-20T18:17:03;5.60;;;1.73;;
30384;SDS011;17181;51.002;4.096;2023-07-20T18:19:29;1.40;;;1.27;;
30384;SDS011;17181;51.002;4.096;2023-07-20T18:21:55;3.67;;;1.70;;
30384;SDS011;17181;51.002;4.096;2023-07-20T18:24:21;3.80;;;1.90;;
30384;SDS011;17181;51.002;4.096;2023-07-20T18:26:47;2.50;;;2.20;;
30384;SDS011;17181;51.002;4.096;2023-07-20T18:29:12;4.07;;;2.20;;
30384;SDS011;17181;51.002;4.096;2023-07-20T18:31:38;2.10;;;1.90;;
30384;SDS011;17181;51.002;4.096;2023-07-20T18:34:06;1.60;;;1.50;;
30384;SDS011;17181;51.002;4.096;2023-07-20T18:36:33;1.60;;;1.50;;
30384;SDS011;17181;51.002;4.096;2023-07-20T18:38:59;2.33;;;1.87;;
30384;SDS011;17181;51.002;4.096;2023-07-20T18:41:25;3.60;;;2.20;;
30384;SDS011;17181;51.002;4.096;2023-07-20T18:43:51;6.07;;;2.00;;
30384;SDS011;17181;51.002;4.096;2023-07-20T18:46:17;2.43;;;2.00;;
30384;SDS011;17181;51.002;4.096;2023-07-20T18:48:46;4.43;;;1.97;;
30384;SDS011;17181;51.002;4.096;2023-07-20T18:51:13;1.93;;;1.83;;
30384;SDS011;17181;51.002;4.096;2023-07-20T18:53:40;2.37;;;1.67;;
30384;SDS011;17181;51.002;4.096;2023-07-20T18:56:07;3.00;;;1.47;;
30384;SDS011;17181;51.002;4.096;2023-07-20T18:58:33;4.27;;;1.73;;
30384;SDS011;17181;51.002;4.096;2023-07-20T19:00:59;7.03;;;2.17;;
30384;SDS011;17181;51.002;4.096;2023-07-20T19:03:25;2.93;;;1.73;;
30384;SDS011;17181;51.002;4.096;2023-07-20T19:05:51;4.40;;;1.77;;
30384;SDS011;17181;51.002;4.096;2023-07-20T19:08:17;3.17;;;1.93;;
30384;SDS011;17181;51.002;4.096;2023-07-20T19:10:43;2.77;;;1.50;;
30384;SDS011;17181;51.002;4.096;2023-07-20T19:13:09;2.20;;;2.00;;
30384;SDS011;17181;51.002;4.096;2023-07-20T19:15:35;2.27;;;1.87;;
30384;SDS011;17181;51.002;4.096;2023-07-20T19:18:01;2.03;;;1.90;;
30384;SDS011;17181;51.002;4.096;2023-07-20T19:20:26;4.17;;;2.33;;
30384;SDS011;17181;51.002;4.096;2023-07-20T19:22:52;1.90;;;1.80;;
30384;SDS011;17181;51.002;4.096;2023-07-20T19:25:18;2.30;;;2.10;;
30384;SDS011;17181;51.002;4.096;2023-07-20T19:27:43;2.90;;;2.20;;
30384;SDS011;17181;51.002;4.096;2023-07-20T19:30:10;3.33;;;1.97;;
30384;SDS011;17181;51.002;4.096;2023-07-20T19:32:36;2.53;;;2.03;;
30384;SDS011;17181;51.002;4.096;2023-07-20T19:35:02;5.73;;;2.50;;
30384;SDS011;17181;51.002;4.096;2023-07-20T19:37:28;2.47;;;2.17;;
30384;SDS011;17181;51.002;4.096;2023-07-20T19:39:54;2.87;;;2.57;;
30384;SDS011;17181;51.002;4.096;2023-07-20T19:42:20;4.33;;;2.63;;
30384;SDS011;17181;51.002;4.096;2023-07-20T19:44:46;3.97;;;2.57;;
30384;SDS011;17181;51.002;4.096;2023-07-20T19:47:12;2.53;;;2.33;;
30384;SDS011;17181;51.002;4.096;2023-07-20T19:49:38;2.20;;;2.00;;
30384;SDS011;17181;51.002;4.096;2023-07-20T19:52:04;5.83;;;2.50;;
30384;SDS011;17181;51.002;4.096;2023-07-20T19:54:29;2.47;;;2.23;;
30384;SDS011;17181;51.002;4.096;2023-07-20T19:56:55;2.33;;;2.10;;
30384;SDS011;17181;51.002;4.096;2023-07-20T19:59:21;4.67;;;2.40;;
30384;SDS011;17181;51.002;4.096;2023-07-20T20:01:48;14.40;;;2.83;;
30384;SDS011;17181;51.002;4.096;2023-07-20T20:04:14;3.03;;;2.57;;
30384;SDS011;17181;51.002;4.096;2023-07-20T20:06:45;3.53;;;2.73;;
30384;SDS011;17181;51.002;4.096;2023-07-20T20:09:14;3.27;;;2.77;;
30384;SDS011;17181;51.002;4.096;2023-07-20T20:11:42;11.63;;;3.03;;
30384;SDS011;17181;51.002;4.096;2023-07-20T20:14:08;2.63;;;2.43;;
30384;SDS011;17181;51.002;4.096;2023-07-20T20:16:34;2.67;;;2.50;;
30384;SDS011;17181;51.002;4.096;2023-07-20T20:19:01;3.93;;;2.73;;
30384;SDS011;17181;51.002;4.096;2023-07-20T20:21:27;6.83;;;2.80;;
30384;SDS011;17181;51.002;4.096;2023-07-20T20:23:54;4.93;;;2.67;;
30384;SDS011;17181;51.002;4.096;2023-07-20T20:26:19;3.77;;;2.37;;
30384;SDS011;17181;51.002;4.096;2023-07-20T20:28:45;4.17;;;2.60;;
30384;SDS011;17181;51.002;4.096;2023-07-20T20:31:11;2.77;;;2.53;;
30384;SDS011;17181;51.002;4.096;2023-07-20T20:33:37;3.03;;;2.73;;
30384;SDS011;17181;51.002;4.096;2023-07-20T20:36:03;3.27;;;2.93;;
30384;SDS011;17181;51.002;4.096;2023-07-20T20:38:30;3.67;;;2.90;;
30384;SDS011;17181;51.002;4.096;2023-07-20T20:40:56;5.10;;;3.13;;
30384;SDS011;17181;51.002;4.096;2023-07-20T20:43:23;3.37;;;2.97;;
30384;SDS011;17181;51.002;4.096;2023-07-20T20:45:49;7.93;;;3.30;;
30384;SDS011;17181;51.002;4.096;2023-07-20T20:48:15;3.77;;;3.07;;
30384;SDS011;17181;51.002;4.096;2023-07-20T20:50:41;3.90;;;3.17;;
30384;SDS011;17181;51.002;4.096;2023-07-20T20:53:13;3.03;;;2.70;;